EXS15JG EGBB-LERS
Flight info
| Callsign | EXS15JG |
|---|---|
| Flight time | N/A |
| Altitude | 39000 |
| Route | CPT UN859 SOPIL DCT BALAN DCT EVPOK DCT NARAK DCT GAI DCT LOMRA DCT ROCAN DCT PUMAL N31 BERGA |
| Aircraft | B738/M-SDE2E3FGHIRWXY/LB1 |
Departure
| Time | N/A |
|---|---|
| Airport | Birmingham Airport (EGBB) |
Arrival
| Time | 2026-05-08 18:22 |
|---|---|
| Airport | Reus Airport (LERS) |
| Time | Latitude | Longitude | Altitude | Speed | Heading |
|---|---|---|---|---|---|
| 2026-05-08 17:46 | 44.10820 | 1.60359 | 38938 ft | 425 kts | 174° |
| 2026-05-08 17:47 | 44.05023 | 1.61744 | 38933 ft | 425 kts | 174° |
| 2026-05-08 17:47 | 44.00139 | 1.62909 | 38927 ft | 425 kts | 174° |
| 2026-05-08 17:48 | 43.93371 | 1.64520 | 38929 ft | 424 kts | 174° |
| 2026-05-08 17:48 | 43.87558 | 1.65900 | 38930 ft | 424 kts | 174° |
| 2026-05-08 17:49 | 43.81752 | 1.67276 | 38923 ft | 423 kts | 174° |
| 2026-05-08 17:49 | 43.75995 | 1.68638 | 38930 ft | 422 kts | 174° |
| 2026-05-08 17:50 | 43.70212 | 1.70003 | 38932 ft | 421 kts | 174° |
| 2026-05-08 17:50 | 43.64438 | 1.71363 | 38931 ft | 420 kts | 174° |
| 2026-05-08 17:51 | 43.58676 | 1.72718 | 38921 ft | 419 kts | 174° |
| 2026-05-08 17:51 | 43.52966 | 1.74058 | 38924 ft | 419 kts | 174° |
| 2026-05-08 17:52 | 43.47223 | 1.75403 | 38917 ft | 418 kts | 174° |
| 2026-05-08 17:53 | 43.38619 | 1.77414 | 38906 ft | 418 kts | 174° |
| 2026-05-08 17:53 | 43.32891 | 1.78748 | 38917 ft | 417 kts | 174° |
| 2026-05-08 17:54 | 43.27171 | 1.80077 | 38477 ft | 425 kts | 174° |
| 2026-05-08 17:54 | 43.24256 | 1.80753 | 37923 ft | 424 kts | 174° |
| 2026-05-08 17:54 | 43.21360 | 1.81427 | 37398 ft | 421 kts | 174° |
| 2026-05-08 17:54 | 43.18471 | 1.82098 | 36827 ft | 421 kts | 174° |
| 2026-05-08 17:55 | 43.15592 | 1.82766 | 36296 ft | 419 kts | 174° |
| 2026-05-08 17:55 | 43.12717 | 1.83431 | 35737 ft | 419 kts | 174° |
| 2026-05-08 17:55 | 43.09837 | 1.84097 | 35122 ft | 420 kts | 173° |
| 2026-05-08 17:55 | 43.06954 | 1.84762 | 34546 ft | 421 kts | 173° |
| 2026-05-08 17:56 | 43.04099 | 1.85421 | 33959 ft | 423 kts | 173° |
| 2026-05-08 17:56 | 43.01211 | 1.86087 | 33477 ft | 419 kts | 173° |
| 2026-05-08 17:56 | 42.98346 | 1.86749 | 32980 ft | 416 kts | 174° |
| 2026-05-08 17:56 | 42.95505 | 1.87404 | 32528 ft | 412 kts | 174° |
| 2026-05-08 17:57 | 42.92686 | 1.88054 | 32087 ft | 409 kts | 174° |
| 2026-05-08 17:57 | 42.89897 | 1.88695 | 31655 ft | 405 kts | 175° |
| 2026-05-08 17:57 | 42.87132 | 1.89330 | 31240 ft | 401 kts | 175° |
| 2026-05-08 17:57 | 42.84403 | 1.89955 | 30829 ft | 398 kts | 175° |
| 2026-05-08 17:58 | 42.81685 | 1.90578 | 30419 ft | 395 kts | 175° |
| 2026-05-08 17:58 | 42.79019 | 1.91188 | 29987 ft | 392 kts | 175° |
| 2026-05-08 17:58 | 42.76339 | 1.91801 | 29517 ft | 389 kts | 175° |
| 2026-05-08 17:58 | 42.73693 | 1.92406 | 29120 ft | 384 kts | 175° |
| 2026-05-08 17:59 | 42.71068 | 1.93005 | 28694 ft | 380 kts | 175° |
| 2026-05-08 17:59 | 42.68473 | 1.93597 | 28299 ft | 376 kts | 175° |
| 2026-05-08 17:59 | 42.65910 | 1.94180 | 27881 ft | 371 kts | 175° |
| 2026-05-08 17:59 | 42.63380 | 1.94755 | 27469 ft | 368 kts | 175° |
| 2026-05-08 18:00 | 42.61713 | 1.95134 | 27198 ft | 366 kts | 175° |
| 2026-05-08 18:00 | 42.55924 | 1.96451 | 26281 ft | 359 kts | 176° |
| 2026-05-08 18:00 | 42.53466 | 1.97009 | 25884 ft | 357 kts | 176° |
| 2026-05-08 18:01 | 42.51021 | 1.97562 | 25509 ft | 356 kts | 176° |
| 2026-05-08 18:01 | 42.48595 | 1.98112 | 25121 ft | 355 kts | 176° |
| 2026-05-08 18:01 | 42.46167 | 1.98661 | 24720 ft | 353 kts | 176° |
| 2026-05-08 18:01 | 42.43747 | 1.99209 | 24342 ft | 352 kts | 176° |
| 2026-05-08 18:02 | 42.41341 | 1.99752 | 23965 ft | 351 kts | 176° |
| 2026-05-08 18:02 | 42.39746 | 2.00112 | 23702 ft | 350 kts | 176° |
| 2026-05-08 18:02 | 42.36532 | 2.00828 | 23088 ft | 349 kts | 178° |
| 2026-05-08 18:02 | 42.34129 | 2.01045 | 22425 ft | 346 kts | 189° |
| 2026-05-08 18:03 | 42.31772 | 2.00585 | 21977 ft | 340 kts | 198° |
| 2026-05-08 18:03 | 42.29568 | 1.99653 | 21550 ft | 335 kts | 204° |
| 2026-05-08 18:03 | 42.27373 | 1.98598 | 21137 ft | 334 kts | 204° |
| 2026-05-08 18:03 | 42.25192 | 1.97539 | 20747 ft | 332 kts | 204° |
| 2026-05-08 18:04 | 42.23023 | 1.96487 | 20352 ft | 330 kts | 204° |
| 2026-05-08 18:04 | 42.20864 | 1.95446 | 19966 ft | 329 kts | 204° |
| 2026-05-08 18:04 | 42.18717 | 1.94414 | 19593 ft | 327 kts | 204° |
| 2026-05-08 18:04 | 42.16573 | 1.93389 | 19202 ft | 326 kts | 204° |
| 2026-05-08 18:05 | 42.14435 | 1.92369 | 18821 ft | 325 kts | 204° |
| 2026-05-08 18:05 | 42.12308 | 1.91356 | 18443 ft | 324 kts | 204° |
| 2026-05-08 18:05 | 42.10182 | 1.90345 | 18040 ft | 324 kts | 204° |
| 2026-05-08 18:05 | 42.08089 | 1.89351 | 17627 ft | 323 kts | 203° |
| 2026-05-08 18:06 | 42.05975 | 1.88349 | 17225 ft | 321 kts | 203° |
| 2026-05-08 18:06 | 42.03872 | 1.87352 | 16841 ft | 319 kts | 203° |
| 2026-05-08 18:06 | 42.01783 | 1.86364 | 16465 ft | 317 kts | 202° |
| 2026-05-08 18:06 | 41.99707 | 1.85382 | 16093 ft | 315 kts | 202° |
| 2026-05-08 18:07 | 41.97648 | 1.84409 | 15737 ft | 313 kts | 202° |
| 2026-05-08 18:07 | 41.95595 | 1.83439 | 15369 ft | 311 kts | 202° |
| 2026-05-08 18:07 | 41.93559 | 1.82478 | 14999 ft | 310 kts | 201° |
| 2026-05-08 18:07 | 41.91530 | 1.81521 | 14644 ft | 308 kts | 201° |
| 2026-05-08 18:08 | 41.90191 | 1.80890 | 14396 ft | 308 kts | 201° |
| 2026-05-08 18:08 | 41.87517 | 1.79629 | 13923 ft | 307 kts | 201° |
| 2026-05-08 18:08 | 41.85518 | 1.78688 | 13532 ft | 306 kts | 200° |
| 2026-05-08 18:08 | 41.83507 | 1.77742 | 13139 ft | 306 kts | 200° |
| 2026-05-08 18:09 | 41.81507 | 1.76803 | 12759 ft | 304 kts | 200° |
| 2026-05-08 18:09 | 41.79511 | 1.75865 | 12385 ft | 303 kts | 200° |
| 2026-05-08 18:09 | 41.78198 | 1.75248 | 12148 ft | 302 kts | 200° |
| 2026-05-08 18:09 | 41.75552 | 1.74007 | 11670 ft | 300 kts | 200° |
| 2026-05-08 18:10 | 41.74253 | 1.73398 | 11431 ft | 299 kts | 200° |
| 2026-05-08 18:10 | 41.72290 | 1.72478 | 11078 ft | 298 kts | 200° |
| 2026-05-08 18:10 | 41.69696 | 1.71264 | 10606 ft | 297 kts | 200° |
| 2026-05-08 18:10 | 41.67752 | 1.70354 | 10352 ft | 293 kts | 200° |
| 2026-05-08 18:11 | 41.65851 | 1.69465 | 10195 ft | 286 kts | 200° |
| 2026-05-08 18:11 | 41.64618 | 1.68889 | 10111 ft | 281 kts | 200° |
| 2026-05-08 18:11 | 41.62802 | 1.68041 | 9942 ft | 274 kts | 200° |
| 2026-05-08 18:11 | 41.60999 | 1.67199 | 9633 ft | 274 kts | 200° |
| 2026-05-08 18:12 | 41.59203 | 1.66361 | 9333 ft | 273 kts | 200° |
| 2026-05-08 18:12 | 41.57413 | 1.65525 | 9024 ft | 272 kts | 200° |
| 2026-05-08 18:12 | 41.55630 | 1.64694 | 8729 ft | 271 kts | 200° |
| 2026-05-08 18:12 | 41.53845 | 1.63862 | 8435 ft | 270 kts | 199° |
| 2026-05-08 18:13 | 41.52080 | 1.63040 | 8139 ft | 269 kts | 200° |
| 2026-05-08 18:13 | 41.50318 | 1.62220 | 7847 ft | 267 kts | 199° |
| 2026-05-08 18:13 | 41.48564 | 1.61404 | 7563 ft | 266 kts | 199° |
| 2026-05-08 18:13 | 41.46818 | 1.60593 | 7270 ft | 266 kts | 199° |
| 2026-05-08 18:14 | 41.45077 | 1.59784 | 6987 ft | 264 kts | 199° |
| 2026-05-08 18:14 | 41.43364 | 1.58989 | 6713 ft | 264 kts | 199° |
| 2026-05-08 18:14 | 41.41636 | 1.58187 | 6500 ft | 260 kts | 199° |
| 2026-05-08 18:14 | 41.39958 | 1.57407 | 6388 ft | 253 kts | 198° |
| 2026-05-08 18:15 | 41.38316 | 1.56646 | 6259 ft | 247 kts | 198° |
| 2026-05-08 18:15 | 41.36718 | 1.55907 | 6144 ft | 240 kts | 198° |
| 2026-05-08 18:15 | 41.35166 | 1.55188 | 6049 ft | 233 kts | 198° |
| 2026-05-08 18:15 | 41.33659 | 1.54440 | 5865 ft | 231 kts | 204° |
| 2026-05-08 18:16 | 41.32203 | 1.53516 | 5651 ft | 234 kts | 206° |
| 2026-05-08 18:16 | 41.30746 | 1.52563 | 5425 ft | 233 kts | 205° |
| 2026-05-08 18:16 | 41.29287 | 1.51618 | 5202 ft | 233 kts | 204° |
| 2026-05-08 18:16 | 41.27846 | 1.50696 | 4975 ft | 232 kts | 204° |
| 2026-05-08 18:17 | 41.26387 | 1.49769 | 4736 ft | 233 kts | 204° |
| 2026-05-08 18:17 | 41.24927 | 1.48840 | 4504 ft | 233 kts | 204° |
| 2026-05-08 18:17 | 41.23671 | 1.47506 | 4229 ft | 237 kts | 238° |
| 2026-05-08 18:17 | 41.23099 | 1.45474 | 4041 ft | 234 kts | 251° |
| 2026-05-08 18:18 | 41.22549 | 1.43450 | 3840 ft | 230 kts | 246° |
| 2026-05-08 18:18 | 41.21962 | 1.41495 | 3758 ft | 225 kts | 247° |
| 2026-05-08 18:18 | 41.21385 | 1.39548 | 3564 ft | 229 kts | 246° |
| 2026-05-08 18:18 | 41.20810 | 1.37582 | 3280 ft | 228 kts | 246° |
| 2026-05-08 18:19 | 41.20247 | 1.35653 | 2964 ft | 225 kts | 246° |
| 2026-05-08 18:19 | 41.19686 | 1.33728 | 2667 ft | 220 kts | 246° |
| 2026-05-08 18:19 | 41.19147 | 1.31876 | 2385 ft | 210 kts | 246° |
| 2026-05-08 18:19 | 41.18632 | 1.30109 | 2100 ft | 200 kts | 247° |
| 2026-05-08 18:20 | 41.18145 | 1.28436 | 1848 ft | 188 kts | 246° |
| 2026-05-08 18:20 | 41.17687 | 1.26859 | 1598 ft | 178 kts | 246° |
| 2026-05-08 18:20 | 41.17257 | 1.25381 | 1398 ft | 164 kts | 246° |
| 2026-05-08 18:20 | 41.16860 | 1.24010 | 1150 ft | 159 kts | 248° |
| 2026-05-08 18:21 | 41.16456 | 1.22644 | 984 ft | 158 kts | 247° |
| 2026-05-08 18:21 | 41.16062 | 1.21253 | 767 ft | 160 kts | 246° |
| 2026-05-08 18:21 | 41.15660 | 1.19890 | 544 ft | 161 kts | 244° |
| 2026-05-08 18:21 | 41.15259 | 1.18496 | 320 ft | 161 kts | 248° |
| 2026-05-08 18:22 | 41.14877 | 1.17186 | 240 ft | 134 kts | 248° |
| 2026-05-08 18:22 | 41.14619 | 1.16307 | 240 ft | 71 kts | 249° |
| 2026-05-08 18:22 | 41.14530 | 1.15999 | 240 ft | 9 kts | 249° |
| 2026-05-08 18:22 | 41.14538 | 1.15916 | 240 ft | 10 kts | 326° |
| 2026-05-08 18:23 | 41.14603 | 1.15882 | 240 ft | 10 kts | 339° |
| 2026-05-08 18:23 | 41.14666 | 1.15875 | 240 ft | 10 kts | 35° |
| 2026-05-08 18:23 | 41.14694 | 1.15955 | 240 ft | 9 kts | 69° |
| 2026-05-08 18:23 | 41.14717 | 1.16033 | 240 ft | 9 kts | 69° |
| 2026-05-08 18:24 | 41.14752 | 1.16090 | 240 ft | 8 kts | 5° |
| 2026-05-08 18:24 | 41.14799 | 1.16070 | 240 ft | 3 kts | 339° |
| 2026-05-08 18:24 | 41.14811 | 1.16064 | 240 ft | 0 kts | 339° |